sensor_id;sensor_type;location;lat;lon;timestamp;P1;P2;P0
70241;PMS5003;57631;52.218;0.108;2022-12-10T00:00:43;72;58;
70241;PMS5003;57631;52.218;0.108;2022-12-10T00:03:09;59;51;
70241;PMS5003;57631;52.218;0.108;2022-12-10T00:05:35;66;57;
70241;PMS5003;57631;52.218;0.108;2022-12-10T00:08:00;54;51;
70241;PMS5003;57631;52.218;0.108;2022-12-10T00:10:25;55;52;
70241;PMS5003;57631;52.218;0.108;2022-12-10T00:12:51;59;54;
70241;PMS5003;57631;52.218;0.108;2022-12-10T00:15:16;65;58;
70241;PMS5003;57631;52.218;0.108;2022-12-10T00:17:42;65;56;
70241;PMS5003;57631;52.218;0.108;2022-12-10T00:20:08;62;57;
70241;PMS5003;57631;52.218;0.108;2022-12-10T00:22:33;67;55;
70241;PMS5003;57631;52.218;0.108;2022-12-10T00:24:59;62;54;
70241;PMS5003;57631;52.218;0.108;2022-12-10T00:27:24;60;51;
70241;PMS5003;57631;52.218;0.108;2022-12-10T00:29:49;55;48;
70241;PMS5003;57631;52.218;0.108;2022-12-10T00:32:15;59;51;
70241;PMS5003;57631;52.218;0.108;2022-12-10T00:34:40;51;50;
70241;PMS5003;57631;52.218;0.108;2022-12-10T00:37:07;55;47;
70241;PMS5003;57631;52.218;0.108;2022-12-10T00:39:32;65;56;
70241;PMS5003;57631;52.218;0.108;2022-12-10T00:41:58;63;57;
70241;PMS5003;57631;52.218;0.108;2022-12-10T00:44:23;58;52;
70241;PMS5003;57631;52.218;0.108;2022-12-10T00:46:49;57;54;
70241;PMS5003;57631;52.218;0.108;2022-12-10T00:49:15;59;53;
70241;PMS5003;57631;52.218;0.108;2022-12-10T00:51:40;64;48;
70241;PMS5003;57631;52.218;0.108;2022-12-10T00:54:05;56;51;
70241;PMS5003;57631;52.218;0.108;2022-12-10T00:56:31;54;47;
70241;PMS5003;57631;52.218;0.108;2022-12-10T00:58:56;60;52;
70241;PMS5003;57631;52.218;0.108;2022-12-10T01:01:23;50;46;
70241;PMS5003;57631;52.218;0.108;2022-12-10T01:03:47;53;50;
70241;PMS5003;57631;52.218;0.108;2022-12-10T01:06:13;65;53;
70241;PMS5003;57631;52.218;0.108;2022-12-10T01:08:38;58;48;
70241;PMS5003;57631;52.218;0.108;2022-12-10T01:11:03;51;46;
70241;PMS5003;57631;52.218;0.108;2022-12-10T01:13:28;55;46;
70241;PMS5003;57631;52.218;0.108;2022-12-10T01:15:53;49;44;
70241;PMS5003;57631;52.218;0.108;2022-12-10T01:18:19;52;47;
70241;PMS5003;57631;52.218;0.108;2022-12-10T01:20:44;56;50;
70241;PMS5003;57631;52.218;0.108;2022-12-10T01:23:10;58;50;
70241;PMS5003;57631;52.218;0.108;2022-12-10T01:25:36;59;48;
70241;PMS5003;57631;52.218;0.108;2022-12-10T01:28:02;52;50;
70241;PMS5003;57631;52.218;0.108;2022-12-10T01:30:27;58;50;
70241;PMS5003;57631;52.218;0.108;2022-12-10T01:32:52;66;54;
70241;PMS5003;57631;52.218;0.108;2022-12-10T01:35:18;52;49;
70241;PMS5003;57631;52.218;0.108;2022-12-10T01:37:44;55;49;
70241;PMS5003;57631;52.218;0.108;2022-12-10T01:40:09;56;46;
70241;PMS5003;57631;52.218;0.108;2022-12-10T01:42:35;50;46;
70241;PMS5003;57631;52.218;0.108;2022-12-10T01:45:04;56;53;
70241;PMS5003;57631;52.218;0.108;2022-12-10T01:47:26;44;40;
70241;PMS5003;57631;52.218;0.108;2022-12-10T01:49:51;45;42;
70241;PMS5003;57631;52.218;0.108;2022-12-10T01:52:17;56;42;
70241;PMS5003;57631;52.218;0.108;2022-12-10T01:54:43;55;48;
70241;PMS5003;57631;52.218;0.108;2022-12-10T01:57:08;59;50;
70241;PMS5003;57631;52.218;0.108;2022-12-10T01:59:34;61;43;
70241;PMS5003;57631;52.218;0.108;2022-12-10T02:02:00;56;43;
70241;PMS5003;57631;52.218;0.108;2022-12-10T02:04:26;63;50;
70241;PMS5003;57631;52.218;0.108;2022-12-10T02:06:59;50;45;
70241;PMS5003;57631;52.218;0.108;2022-12-10T02:09:19;50;41;
70241;PMS5003;57631;52.218;0.108;2022-12-10T02:11:42;57;44;
70241;PMS5003;57631;52.218;0.108;2022-12-10T02:14:08;50;44;
70241;PMS5003;57631;52.218;0.108;2022-12-10T02:16:34;53;44;
70241;PMS5003;57631;52.218;0.108;2022-12-10T02:18:58;47;44;
70241;PMS5003;57631;52.218;0.108;2022-12-10T02:21:24;57;51;
70241;PMS5003;57631;52.218;0.108;2022-12-10T02:23:50;59;50;
70241;PMS5003;57631;52.218;0.108;2022-12-10T02:26:15;54;50;
70241;PMS5003;57631;52.218;0.108;2022-12-10T02:28:40;61;55;
70241;PMS5003;57631;52.218;0.108;2022-12-10T02:31:05;58;51;
70241;PMS5003;57631;52.218;0.108;2022-12-10T02:33:30;56;51;
70241;PMS5003;57631;52.218;0.108;2022-12-10T02:35:56;59;50;
70241;PMS5003;57631;52.218;0.108;2022-12-10T02:38:23;51;46;
70241;PMS5003;57631;52.218;0.108;2022-12-10T02:40:48;67;52;
70241;PMS5003;57631;52.218;0.108;2022-12-10T02:43:12;55;51;
70241;PMS5003;57631;52.218;0.108;2022-12-10T02:45:37;57;49;
70241;PMS5003;57631;52.218;0.108;2022-12-10T02:48:03;55;49;
70241;PMS5003;57631;52.218;0.108;2022-12-10T02:50:27;55;51;
70241;PMS5003;57631;52.218;0.108;2022-12-10T02:52:53;50;47;
70241;PMS5003;57631;52.218;0.108;2022-12-10T02:55:18;54;46;
70241;PMS5003;57631;52.218;0.108;2022-12-10T02:57:46;66;53;
70241;PMS5003;57631;52.218;0.108;2022-12-10T03:00:10;53;48;
70241;PMS5003;57631;52.218;0.108;2022-12-10T03:02:39;52;46;
70241;PMS5003;57631;52.218;0.108;2022-12-10T03:05:02;59;45;
70241;PMS5003;57631;52.218;0.108;2022-12-10T03:07:27;57;50;
70241;PMS5003;57631;52.218;0.108;2022-12-10T03:09:51;61;54;
70241;PMS5003;57631;52.218;0.108;2022-12-10T03:12:17;50;43;
70241;PMS5003;57631;52.218;0.108;2022-12-10T03:14:42;55;49;
70241;PMS5003;57631;52.218;0.108;2022-12-10T03:17:08;62;53;
70241;PMS5003;57631;52.218;0.108;2022-12-10T03:19:34;64;59;
70241;PMS5003;57631;52.218;0.108;2022-12-10T03:21:58;54;48;
70241;PMS5003;57631;52.218;0.108;2022-12-10T03:24:23;49;46;
70241;PMS5003;57631;52.218;0.108;2022-12-10T03:26:49;58;49;
70241;PMS5003;57631;52.218;0.108;2022-12-10T03:29:15;54;47;
70241;PMS5003;57631;52.218;0.108;2022-12-10T03:31:40;57;53;
70241;PMS5003;57631;52.218;0.108;2022-12-10T03:34:06;59;49;
70241;PMS5003;57631;52.218;0.108;2022-12-10T03:36:32;60;50;
70241;PMS5003;57631;52.218;0.108;2022-12-10T03:38:57;55;50;
70241;PMS5003;57631;52.218;0.108;2022-12-10T03:41:23;60;53;
70241;PMS5003;57631;52.218;0.108;2022-12-10T03:43:50;52;45;
70241;PMS5003;57631;52.218;0.108;2022-12-10T03:46:14;64;53;
70241;PMS5003;57631;52.218;0.108;2022-12-10T03:48:39;60;54;
70241;PMS5003;57631;52.218;0.108;2022-12-10T03:51:05;58;53;
70241;PMS5003;57631;52.218;0.108;2022-12-10T03:53:30;63;54;
70241;PMS5003;57631;52.218;0.108;2022-12-10T03:55:56;65;57;
70241;PMS5003;57631;52.218;0.108;2022-12-10T03:58:22;56;50;
70241;PMS5003;57631;52.218;0.108;2022-12-10T04:00:47;53;52;
70241;PMS5003;57631;52.218;0.108;2022-12-10T04:03:13;58;54;
70241;PMS5003;57631;52.218;0.108;2022-12-10T04:05:38;63;53;
70241;PMS5003;57631;52.218;0.108;2022-12-10T04:08:04;57;50;
70241;PMS5003;57631;52.218;0.108;2022-12-10T04:10:29;59;50;
70241;PMS5003;57631;52.218;0.108;2022-12-10T04:12:54;49;42;
70241;PMS5003;57631;52.218;0.108;2022-12-10T04:15:20;49;46;
70241;PMS5003;57631;52.218;0.108;2022-12-10T04:17:45;68;55;
70241;PMS5003;57631;52.218;0.108;2022-12-10T04:20:11;53;44;
70241;PMS5003;57631;52.218;0.108;2022-12-10T04:22:36;52;45;
70241;PMS5003;57631;52.218;0.108;2022-12-10T04:25:02;57;44;
70241;PMS5003;57631;52.218;0.108;2022-12-10T04:27:28;57;47;
70241;PMS5003;57631;52.218;0.108;2022-12-10T04:29:54;60;51;
70241;PMS5003;57631;52.218;0.108;2022-12-10T04:32:19;50;44;
70241;PMS5003;57631;52.218;0.108;2022-12-10T04:34:44;55;42;
70241;PMS5003;57631;52.218;0.108;2022-12-10T04:37:10;48;44;
70241;PMS5003;57631;52.218;0.108;2022-12-10T04:39:35;44;35;
70241;PMS5003;57631;52.218;0.108;2022-12-10T04:42:00;50;44;
70241;PMS5003;57631;52.218;0.108;2022-12-10T04:44:25;46;44;
70241;PMS5003;57631;52.218;0.108;2022-12-10T04:46:51;49;41;
70241;PMS5003;57631;52.218;0.108;2022-12-10T04:49:16;60;48;
70241;PMS5003;57631;52.218;0.108;2022-12-10T04:51:42;48;41;
70241;PMS5003;57631;52.218;0.108;2022-12-10T04:54:07;46;44;
70241;PMS5003;57631;52.218;0.108;2022-12-10T04:56:33;49;42;
70241;PMS5003;57631;52.218;0.108;2022-12-10T04:58:58;44;36;
70241;PMS5003;57631;52.218;0.108;2022-12-10T05:01:24;45;42;
70241;PMS5003;57631;52.218;0.108;2022-12-10T05:03:49;42;42;
70241;PMS5003;57631;52.218;0.108;2022-12-10T05:06:15;48;39;
70241;PMS5003;57631;52.218;0.108;2022-12-10T05:08:40;50;49;
70241;PMS5003;57631;52.218;0.108;2022-12-10T05:11:06;50;40;
70241;PMS5003;57631;52.218;0.108;2022-12-10T05:13:31;44;41;
70241;PMS5003;57631;52.218;0.108;2022-12-10T05:15:56;51;42;
70241;PMS5003;57631;52.218;0.108;2022-12-10T05:18:22;49;46;
70241;PMS5003;57631;52.218;0.108;2022-12-10T05:20:47;47;43;
70241;PMS5003;57631;52.218;0.108;2022-12-10T05:23:13;45;40;
70241;PMS5003;57631;52.218;0.108;2022-12-10T05:25:38;47;47;
70241;PMS5003;57631;52.218;0.108;2022-12-10T05:28:03;58;45;
70241;PMS5003;57631;52.218;0.108;2022-12-10T05:30:28;59;47;
70241;PMS5003;57631;52.218;0.108;2022-12-10T05:32:53;60;51;
70241;PMS5003;57631;52.218;0.108;2022-12-10T05:35:19;56;50;
70241;PMS5003;57631;52.218;0.108;2022-12-10T05:37:44;50;45;
70241;PMS5003;57631;52.218;0.108;2022-12-10T05:40:10;49;42;
70241;PMS5003;57631;52.218;0.108;2022-12-10T05:42:35;50;42;
70241;PMS5003;57631;52.218;0.108;2022-12-10T05:45:01;56;45;
70241;PMS5003;57631;52.218;0.108;2022-12-10T05:47:26;56;47;
70241;PMS5003;57631;52.218;0.108;2022-12-10T05:49:51;46;42;
70241;PMS5003;57631;52.218;0.108;2022-12-10T05:52:16;52;45;
70241;PMS5003;57631;52.218;0.108;2022-12-10T05:54:41;52;48;
70241;PMS5003;57631;52.218;0.108;2022-12-10T05:57:07;48;43;
70241;PMS5003;57631;52.218;0.108;2022-12-10T05:59:32;48;41;
70241;PMS5003;57631;52.218;0.108;2022-12-10T06:01:58;50;47;
70241;PMS5003;57631;52.218;0.108;2022-12-10T06:04:23;47;43;
70241;PMS5003;57631;52.218;0.108;2022-12-10T06:06:49;57;50;
70241;PMS5003;57631;52.218;0.108;2022-12-10T06:09:15;56;46;
70241;PMS5003;57631;52.218;0.108;2022-12-10T06:11:40;45;44;
70241;PMS5003;57631;52.218;0.108;2022-12-10T06:14:06;51;48;
70241;PMS5003;57631;52.218;0.108;2022-12-10T06:16:31;56;49;
70241;PMS5003;57631;52.218;0.108;2022-12-10T06:18:56;54;44;
70241;PMS5003;57631;52.218;0.108;2022-12-10T06:21:21;68;53;
70241;PMS5003;57631;52.218;0.108;2022-12-10T06:23:47;59;48;
70241;PMS5003;57631;52.218;0.108;2022-12-10T06:26:13;54;45;
70241;PMS5003;57631;52.218;0.108;2022-12-10T06:28:38;49;42;
70241;PMS5003;57631;52.218;0.108;2022-12-10T06:31:04;54;50;
70241;PMS5003;57631;52.218;0.108;2022-12-10T06:33:28;52;44;
70241;PMS5003;57631;52.218;0.108;2022-12-10T06:35:53;57;51;
70241;PMS5003;57631;52.218;0.108;2022-12-10T06:38:19;47;40;
70241;PMS5003;57631;52.218;0.108;2022-12-10T06:40:45;52;46;
70241;PMS5003;57631;52.218;0.108;2022-12-10T06:43:10;63;51;
70241;PMS5003;57631;52.218;0.108;2022-12-10T06:45:37;50;43;
70241;PMS5003;57631;52.218;0.108;2022-12-10T06:48:01;55;43;
70241;PMS5003;57631;52.218;0.108;2022-12-10T06:50:26;56;50;
70241;PMS5003;57631;52.218;0.108;2022-12-10T06:52:51;60;47;
70241;PMS5003;57631;52.218;0.108;2022-12-10T06:55:17;55;49;
70241;PMS5003;57631;52.218;0.108;2022-12-10T06:57:43;57;51;
70241;PMS5003;57631;52.218;0.108;2022-12-10T07:00:08;49;44;
70241;PMS5003;57631;52.218;0.108;2022-12-10T07:02:33;52;46;
70241;PMS5003;57631;52.218;0.108;2022-12-10T07:04:59;59;50;
70241;PMS5003;57631;52.218;0.108;2022-12-10T07:07:24;51;48;
70241;PMS5003;57631;52.218;0.108;2022-12-10T07:09:49;59;53;
70241;PMS5003;57631;52.218;0.108;2022-12-10T07:12:14;71;58;
70241;PMS5003;57631;52.218;0.108;2022-12-10T07:14:40;64;52;
70241;PMS5003;57631;52.218;0.108;2022-12-10T07:17:06;46;45;
70241;PMS5003;57631;52.218;0.108;2022-12-10T07:19:31;57;50;
70241;PMS5003;57631;52.218;0.108;2022-12-10T07:21:56;59;53;
70241;PMS5003;57631;52.218;0.108;2022-12-10T07:24:22;52;51;
70241;PMS5003;57631;52.218;0.108;2022-12-10T07:26:48;58;47;
70241;PMS5003;57631;52.218;0.108;2022-12-10T07:29:14;60;52;
70241;PMS5003;57631;52.218;0.108;2022-12-10T07:31:39;60;54;
70241;PMS5003;57631;52.218;0.108;2022-12-10T07:34:04;56;46;
70241;PMS5003;57631;52.218;0.108;2022-12-10T07:36:30;50;46;
70241;PMS5003;57631;52.218;0.108;2022-12-10T07:38:56;68;53;
70241;PMS5003;57631;52.218;0.108;2022-12-10T07:41:22;56;49;
70241;PMS5003;57631;52.218;0.108;2022-12-10T07:43:47;55;44;
70241;PMS5003;57631;52.218;0.108;2022-12-10T07:46:13;58;52;
70241;PMS5003;57631;52.218;0.108;2022-12-10T07:48:38;55;46;
70241;PMS5003;57631;52.218;0.108;2022-12-10T07:51:04;51;46;
70241;PMS5003;57631;52.218;0.108;2022-12-10T07:53:28;55;49;
70241;PMS5003;57631;52.218;0.108;2022-12-10T07:55:54;56;51;
70241;PMS5003;57631;52.218;0.108;2022-12-10T07:58:20;50;42;
70241;PMS5003;57631;52.218;0.108;2022-12-10T08:00:45;60;50;
70241;PMS5003;57631;52.218;0.108;2022-12-10T08:03:11;59;47;
70241;PMS5003;57631;52.218;0.108;2022-12-10T08:05:36;55;52;
70241;PMS5003;57631;52.218;0.108;2022-12-10T08:08:02;55;49;
70241;PMS5003;57631;52.218;0.108;2022-12-10T08:10:27;56;49;
70241;PMS5003;57631;52.218;0.108;2022-12-10T08:12:52;60;50;
70241;PMS5003;57631;52.218;0.108;2022-12-10T08:15:18;56;49;
70241;PMS5003;57631;52.218;0.108;2022-12-10T08:17:43;60;50;
70241;PMS5003;57631;52.218;0.108;2022-12-10T08:20:09;54;51;
70241;PMS5003;57631;52.218;0.108;2022-12-10T08:22:34;57;55;
70241;PMS5003;57631;52.218;0.108;2022-12-10T08:24:59;57;49;
70241;PMS5003;57631;52.218;0.108;2022-12-10T08:27:25;55;52;
70241;PMS5003;57631;52.218;0.108;2022-12-10T08:29:50;60;54;
70241;PMS5003;57631;52.218;0.108;2022-12-10T08:32:16;50;46;
70241;PMS5003;57631;52.218;0.108;2022-12-10T08:34:42;58;51;
70241;PMS5003;57631;52.218;0.108;2022-12-10T08:37:07;58;54;
70241;PMS5003;57631;52.218;0.108;2022-12-10T08:39:33;52;45;
70241;PMS5003;57631;52.218;0.108;2022-12-10T08:41:58;59;52;
70241;PMS5003;57631;52.218;0.108;2022-12-10T08:44:24;58;54;
70241;PMS5003;57631;52.218;0.108;2022-12-10T08:46:49;58;49;
70241;PMS5003;57631;52.218;0.108;2022-12-10T08:49:14;60;53;
70241;PMS5003;57631;52.218;0.108;2022-12-10T08:51:40;61;53;
70241;PMS5003;57631;52.218;0.108;2022-12-10T08:54:05;62;55;
70241;PMS5003;57631;52.218;0.108;2022-12-10T08:56:30;54;44;
70241;PMS5003;57631;52.218;0.108;2022-12-10T08:58:56;53;46;
70241;PMS5003;57631;52.218;0.108;2022-12-10T09:01:21;55;50;
70241;PMS5003;57631;52.218;0.108;2022-12-10T09:03:46;59;51;
70241;PMS5003;57631;52.218;0.108;2022-12-10T09:06:12;57;51;
70241;PMS5003;57631;52.218;0.108;2022-12-10T09:08:37;50;45;
70241;PMS5003;57631;52.218;0.108;2022-12-10T09:11:04;57;53;
70241;PMS5003;57631;52.218;0.108;2022-12-10T09:13:27;61;56;
70241;PMS5003;57631;52.218;0.108;2022-12-10T09:15:52;58;56;
70241;PMS5003;57631;52.218;0.108;2022-12-10T09:18:18;58;51;
70241;PMS5003;57631;52.218;0.108;2022-12-10T09:20:43;50;46;
70241;PMS5003;57631;52.218;0.108;2022-12-10T09:23:08;60;49;
70241;PMS5003;57631;52.218;0.108;2022-12-10T09:25:34;59;51;
70241;PMS5003;57631;52.218;0.108;2022-12-10T09:28:00;59;53;
70241;PMS5003;57631;52.218;0.108;2022-12-10T09:30:25;48;43;
70241;PMS5003;57631;52.218;0.108;2022-12-10T09:32:50;67;52;
70241;PMS5003;57631;52.218;0.108;2022-12-10T09:35:15;53;46;
70241;PMS5003;57631;52.218;0.108;2022-12-10T09:37:41;48;42;
70241;PMS5003;57631;52.218;0.108;2022-12-10T09:40:07;52;47;
70241;PMS5003;57631;52.218;0.108;2022-12-10T09:42:34;42;40;
70241;PMS5003;57631;52.218;0.108;2022-12-10T09:44:59;49;46;
70241;PMS5003;57631;52.218;0.108;2022-12-10T09:47:24;54;50;
70241;PMS5003;57631;52.218;0.108;2022-12-10T09:49:51;52;43;
70241;PMS5003;57631;52.218;0.108;2022-12-10T09:52:15;49;44;
70241;PMS5003;57631;52.218;0.108;2022-12-10T09:54:39;46;43;
70241;PMS5003;57631;52.218;0.108;2022-12-10T09:57:05;55;50;
70241;PMS5003;57631;52.218;0.108;2022-12-10T09:59:31;46;39;
70241;PMS5003;57631;52.218;0.108;2022-12-10T10:02:00;53;46;
70241;PMS5003;57631;52.218;0.108;2022-12-10T10:04:21;41;39;
70241;PMS5003;57631;52.218;0.108;2022-12-10T10:06:46;50;47;
70241;PMS5003;57631;52.218;0.108;2022-12-10T10:09:12;54;46;
70241;PMS5003;57631;52.218;0.108;2022-12-10T10:11:37;47;44;
70241;PMS5003;57631;52.218;0.108;2022-12-10T10:14:04;49;41;
70241;PMS5003;57631;52.218;0.108;2022-12-10T10:16:30;48;38;
70241;PMS5003;57631;52.218;0.108;2022-12-10T10:18:55;52;44;
70241;PMS5003;57631;52.218;0.108;2022-12-10T10:21:20;42;41;
70241;PMS5003;57631;52.218;0.108;2022-12-10T10:23:43;49;42;
70241;PMS5003;57631;52.218;0.108;2022-12-10T10:26:08;39;38;
70241;PMS5003;57631;52.218;0.108;2022-12-10T10:28:34;49;43;
70241;PMS5003;57631;52.218;0.108;2022-12-10T10:30:59;45;42;
70241;PMS5003;57631;52.218;0.108;2022-12-10T10:33:25;49;42;
70241;PMS5003;57631;52.218;0.108;2022-12-10T10:35:53;42;39;
70241;PMS5003;57631;52.218;0.108;2022-12-10T10:38:16;51;46;
70241;PMS5003;57631;52.218;0.108;2022-12-10T10:40:42;53;43;
70241;PMS5003;57631;52.218;0.108;2022-12-10T10:43:08;52;45;
70241;PMS5003;57631;52.218;0.108;2022-12-10T10:45:35;48;42;
70241;PMS5003;57631;52.218;0.108;2022-12-10T10:50:23;56;43;
70241;PMS5003;57631;52.218;0.108;2022-12-10T10:52:47;44;39;
70241;PMS5003;57631;52.218;0.108;2022-12-10T10:57:38;41;37;
70241;PMS5003;57631;52.218;0.108;2022-12-10T11:00:05;50;45;
70241;PMS5003;57631;52.218;0.108;2022-12-10T11:02:30;53;44;
70241;PMS5003;57631;52.218;0.108;2022-12-10T11:04:54;45;41;
70241;PMS5003;57631;52.218;0.108;2022-12-10T11:07:21;47;40;
70241;PMS5003;57631;52.218;0.108;2022-12-10T11:09:45;45;41;
70241;PMS5003;57631;52.218;0.108;2022-12-10T11:14:38;45;41;
70241;PMS5003;57631;52.218;0.108;2022-12-10T11:17:07;42;39;
70241;PMS5003;57631;52.218;0.108;2022-12-10T11:19:26;42;38;
70241;PMS5003;57631;52.218;0.108;2022-12-10T11:21:51;47;35;
70241;PMS5003;57631;52.218;0.108;2022-12-10T11:24:18;44;43;
70241;PMS5003;57631;52.218;0.108;2022-12-10T11:26:45;33;33;
70241;PMS5003;57631;52.218;0.108;2022-12-10T11:29:14;49;40;
70241;PMS5003;57631;52.218;0.108;2022-12-10T11:31:37;45;39;
70241;PMS5003;57631;52.218;0.108;2022-12-10T11:33:59;37;34;
70241;PMS5003;57631;52.218;0.108;2022-12-10T11:36:25;45;39;
70241;PMS5003;57631;52.218;0.108;2022-12-10T11:38:50;45;42;
70241;PMS5003;57631;52.218;0.108;2022-12-10T11:41:16;43;40;
70241;PMS5003;57631;52.218;0.108;2022-12-10T11:43:42;40;38;
70241;PMS5003;57631;52.218;0.108;2022-12-10T11:46:10;34;32;
70241;PMS5003;57631;52.218;0.108;2022-12-10T11:48:34;43;40;
70241;PMS5003;57631;52.218;0.108;2022-12-10T11:50:58;39;35;
70241;PMS5003;57631;52.218;0.108;2022-12-10T11:53:27;42;39;
70241;PMS5003;57631;52.218;0.108;2022-12-10T11:55:50;39;38;
70241;PMS5003;57631;52.218;0.108;2022-12-10T11:58:17;36;33;
70241;PMS5003;57631;52.218;0.108;2022-12-10T12:00:40;40;37;
70241;PMS5003;57631;52.218;0.108;2022-12-10T12:03:07;42;40;
70241;PMS5003;57631;52.218;0.108;2022-12-10T12:05:35;42;37;
70241;PMS5003;57631;52.218;0.108;2022-12-10T12:07:56;45;40;
70241;PMS5003;57631;52.218;0.108;2022-12-10T12:10:29;42;36;
70241;PMS5003;57631;52.218;0.108;2022-12-10T12:12:47;44;40;
70241;PMS5003;57631;52.218;0.108;2022-12-10T12:15:14;42;35;
70241;PMS5003;57631;52.218;0.108;2022-12-10T12:17:38;39;35;
70241;PMS5003;57631;52.218;0.108;2022-12-10T12:20:04;36;36;
70241;PMS5003;57631;52.218;0.108;2022-12-10T12:22:30;39;36;
70241;PMS5003;57631;52.218;0.108;2022-12-10T12:24:55;34;34;
70241;PMS5003;57631;52.218;0.108;2022-12-10T12:27:22;38;36;
70241;PMS5003;57631;52.218;0.108;2022-12-10T12:29:46;44;41;
70241;PMS5003;57631;52.218;0.108;2022-12-10T12:32:11;36;36;
70241;PMS5003;57631;52.218;0.108;2022-12-10T12:34:37;36;36;
70241;PMS5003;57631;52.218;0.108;2022-12-10T12:37:02;36;34;
70241;PMS5003;57631;52.218;0.108;2022-12-10T12:39:28;30;30;
70241;PMS5003;57631;52.218;0.108;2022-12-10T12:41:55;44;40;
70241;PMS5003;57631;52.218;0.108;2022-12-10T12:44:18;41;39;
70241;PMS5003;57631;52.218;0.108;2022-12-10T12:46:44;35;33;
70241;PMS5003;57631;52.218;0.108;2022-12-10T12:49:10;36;32;
70241;PMS5003;57631;52.218;0.108;2022-12-10T12:51:34;35;31;
70241;PMS5003;57631;52.218;0.108;2022-12-10T12:53:59;37;34;
70241;PMS5003;57631;52.218;0.108;2022-12-10T12:56:27;38;35;
70241;PMS5003;57631;52.218;0.108;2022-12-10T12:58:54;40;35;
70241;PMS5003;57631;52.218;0.108;2022-12-10T13:01:18;38;33;
70241;PMS5003;57631;52.218;0.108;2022-12-10T13:03:41;37;33;
70241;PMS5003;57631;52.218;0.108;2022-12-10T13:08:41;35;33;
70241;PMS5003;57631;52.218;0.108;2022-12-10T13:10:58;43;41;
70241;PMS5003;57631;52.218;0.108;2022-12-10T13:13:24;40;36;
70241;PMS5003;57631;52.218;0.108;2022-12-10T13:15:49;40;39;
70241;PMS5003;57631;52.218;0.108;2022-12-10T13:20:40;31;31;
70241;PMS5003;57631;52.218;0.108;2022-12-10T13:23:27;39;38;
70241;PMS5003;57631;52.218;0.108;2022-12-10T13:27:57;35;33;
70241;PMS5003;57631;52.218;0.108;2022-12-10T13:30:26;36;32;
70241;PMS5003;57631;52.218;0.108;2022-12-10T13:32:47;32;31;
70241;PMS5003;57631;52.218;0.108;2022-12-10T13:35:18;33;30;
70241;PMS5003;57631;52.218;0.108;2022-12-10T13:42:30;38;34;
70241;PMS5003;57631;52.218;0.108;2022-12-10T13:44:59;35;34;
70241;PMS5003;57631;52.218;0.108;2022-12-10T13:47:24;35;33;
70241;PMS5003;57631;52.218;0.108;2022-12-10T13:49:46;28;28;
70241;PMS5003;57631;52.218;0.108;2022-12-10T13:52:13;31;30;
70241;PMS5003;57631;52.218;0.108;2022-12-10T13:54:40;31;27;
70241;PMS5003;57631;52.218;0.108;2022-12-10T13:57:04;27;26;
70241;PMS5003;57631;52.218;0.108;2022-12-10T13:59:28;30;27;
70241;PMS5003;57631;52.218;0.108;2022-12-10T14:01:55;26;26;
70241;PMS5003;57631;52.218;0.108;2022-12-10T14:04:22;31;31;
70241;PMS5003;57631;52.218;0.108;2022-12-10T14:06:42;29;28;
70241;PMS5003;57631;52.218;0.108;2022-12-10T14:09:11;27;25;
70241;PMS5003;57631;52.218;0.108;2022-12-10T14:11:34;30;27;
70241;PMS5003;57631;52.218;0.108;2022-12-10T14:13:59;29;28;
70241;PMS5003;57631;52.218;0.108;2022-12-10T14:16:24;26;25;
70241;PMS5003;57631;52.218;0.108;2022-12-10T14:18:51;38;31;
70241;PMS5003;57631;52.218;0.108;2022-12-10T14:21:14;25;23;
70241;PMS5003;57631;52.218;0.108;2022-12-10T14:23:44;32;32;
70241;PMS5003;57631;52.218;0.108;2022-12-10T14:26:06;30;28;
70241;PMS5003;57631;52.218;0.108;2022-12-10T14:28:31;30;28;
70241;PMS5003;57631;52.218;0.108;2022-12-10T14:30:57;31;28;
70241;PMS5003;57631;52.218;0.108;2022-12-10T14:33:22;27;27;
70241;PMS5003;57631;52.218;0.108;2022-12-10T14:35:47;35;29;
70241;PMS5003;57631;52.218;0.108;2022-12-10T14:38:16;34;29;
70241;PMS5003;57631;52.218;0.108;2022-12-10T14:40:40;29;29;
70241;PMS5003;57631;52.218;0.108;2022-12-10T14:43:05;33;32;
70241;PMS5003;57631;52.218;0.108;2022-12-10T14:45:31;28;28;
70241;PMS5003;57631;52.218;0.108;2022-12-10T14:47:55;30;28;
70241;PMS5003;57631;52.218;0.108;2022-12-10T14:50:20;30;26;
70241;PMS5003;57631;52.218;0.108;2022-12-10T14:52:50;29;27;
70241;PMS5003;57631;52.218;0.108;2022-12-10T14:55:13;29;28;
70241;PMS5003;57631;52.218;0.108;2022-12-10T14:57:38;28;25;
70241;PMS5003;57631;52.218;0.108;2022-12-10T15:00:04;31;29;
70241;PMS5003;57631;52.218;0.108;2022-12-10T15:02:29;34;33;
70241;PMS5003;57631;52.218;0.108;2022-12-10T15:04:54;34;26;
70241;PMS5003;57631;52.218;0.108;2022-12-10T15:07:20;35;34;
70241;PMS5003;57631;52.218;0.108;2022-12-10T15:09:46;38;35;
70241;PMS5003;57631;52.218;0.108;2022-12-10T15:12:19;44;36;
70241;PMS5003;57631;52.218;0.108;2022-12-10T15:14:36;46;42;
70241;PMS5003;57631;52.218;0.108;2022-12-10T15:17:02;50;44;
70241;PMS5003;57631;52.218;0.108;2022-12-10T15:19:31;37;34;
70241;PMS5003;57631;52.218;0.108;2022-12-10T15:21:58;42;38;
70241;PMS5003;57631;52.218;0.108;2022-12-10T15:24:20;39;35;
70241;PMS5003;57631;52.218;0.108;2022-12-10T15:26:44;30;29;
70241;PMS5003;57631;52.218;0.108;2022-12-10T15:31:34;39;34;
70241;PMS5003;57631;52.218;0.108;2022-12-10T15:34:00;32;32;
70241;PMS5003;57631;52.218;0.108;2022-12-10T15:36:28;34;33;
70241;PMS5003;57631;52.218;0.108;2022-12-10T15:38:50;39;38;
70241;PMS5003;57631;52.218;0.108;2022-12-10T15:43:41;41;39;
70241;PMS5003;57631;52.218;0.108;2022-12-10T15:48:31;32;29;
70241;PMS5003;57631;52.218;0.108;2022-12-10T15:50:56;31;27;
70241;PMS5003;57631;52.218;0.108;2022-12-10T15:53:24;31;26;
70241;PMS5003;57631;52.218;0.108;2022-12-10T15:55:47;37;31;
70241;PMS5003;57631;52.218;0.108;2022-12-10T15:58:13;37;28;
70241;PMS5003;57631;52.218;0.108;2022-12-10T16:00:38;27;27;
70241;PMS5003;57631;52.218;0.108;2022-12-10T16:03:05;36;33;
70241;PMS5003;57631;52.218;0.108;2022-12-10T16:05:30;38;36;
70241;PMS5003;57631;52.218;0.108;2022-12-10T16:07:58;39;34;
70241;PMS5003;57631;52.218;0.108;2022-12-10T16:10:21;35;31;
70241;PMS5003;57631;52.218;0.108;2022-12-10T16:12:48;32;28;
70241;PMS5003;57631;52.218;0.108;2022-12-10T16:15:15;37;30;
70241;PMS5003;57631;52.218;0.108;2022-12-10T16:17:37;42;34;
70241;PMS5003;57631;52.218;0.108;2022-12-10T16:22:28;51;45;
70241;PMS5003;57631;52.218;0.108;2022-12-10T16:24:53;38;34;
70241;PMS5003;57631;52.218;0.108;2022-12-10T16:27:18;43;40;
70241;PMS5003;57631;52.218;0.108;2022-12-10T16:29:43;43;37;
70241;PMS5003;57631;52.218;0.108;2022-12-10T16:32:09;43;39;
70241;PMS5003;57631;52.218;0.108;2022-12-10T16:34:35;47;43;